TAF and METAR

METAR for Aktion Airport

LGPZ 292150Z 00000KT 9999 FEW020 15/13 Q1017 RMK FEW180 BLU
Report created 29. mai 23:50
wind 0 knots from N (000°) visibility > 10km some clouds (~25% cover) at 2000 feet Temperature 15° with dewpoint at 13° (Humidity 87.85%) Pressure 1017 hPa

TAF for Aktion Airport

TAF LGPZ 291700Z 2918/3018 26015KT 9999 FEW020 SCT080 TEMPO 3000/3006 09005KT PROB40 TEMPO 3009/3015 5000 RA SCT020TCU BKN080 PROB30 TEMPO 3009/3015 TSRA SCT018CB BKN060
Report created 29. mai 19:00

between 29. mai 20:00 - 30. mai 20:00

wind 15 knots from W (260°) visibility > 10km some clouds (~25% cover) at 2000 feet scattered clouds (~50% cover) at 8000 feet

temporarily between 30. mai 02:00 - 30. mai 08:00

wind 5 knots from E (090°)

probably (~40%) temporarily between 30. mai 11:00 - 30. mai 17:00

visibility 5000 meters rain scattered clouds (~50% cover) at 2000 feet of type towering cumulus broken clouds (~75% cover) at 8000 feet

probably (~30%) temporarily between 30. mai 11:00 - 30. mai 17:00

thunderstorm and rain scattered clouds (~50% cover) at 1800 feet of type cumulonimbus broken clouds (~75% cover) at 6000 feet